Details for Qantas at YSSY




Go Back


Latest METAR
Local Time

YSSY 221100Z 07002KT CAVOK 17/13 Q1023 NOSIG
22/09/2018, 21:39:57

Description
Results
Qantas Logo
Number of Pilots based at YSSY
0 Pilots Based here
Number of Qantas Flights Departed from YSSY
9 Flights Departed
Number of Qantas Flights Arrived at YSSY
9 Flights Arrived
Number of Qantas Schedules Departing from YSSY
144 Schedules
Number of Qantas Schedules Arriving at YSSY
150 Schedules
Number of Qantas Schedules Departing from YSSY availible today
75 Schedules Today
Number of Qantas Schedules Arriving at YSSY availible today
74 Schedules Today
Average Landing Rate at YSSY
-212 fpm
Qantas Average Landing Rate at YSSY
-83 fpm
Total Fuel Purchased at YSSY by Qantas
41,045.57 kgs / 90,489.06 lbs

Pilots Based at YSSY


Pilot ID
Pilot Name
Pilot Rank
No. of Flights
No. of Flying Hours
There are no pilots assigned to this hub!   Will you be the first?
Content